createdAt,value
2017-10-14T00:02:01.267Z,99.90
2017-10-14T00:04:28.797Z,99.90
2017-10-14T00:06:56.354Z,99.90
2017-10-14T00:09:24.140Z,99.90
2017-10-14T00:11:51.653Z,99.90
2017-10-14T00:14:19.280Z,99.90
2017-10-14T00:16:47.817Z,99.90
2017-10-14T00:19:16.171Z,99.90
2017-10-14T00:21:44.485Z,99.90
2017-10-14T00:24:12.987Z,99.90
2017-10-14T00:26:40.538Z,99.90
2017-10-14T00:29:08.068Z,99.90
2017-10-14T00:34:09.150Z,99.90
2017-10-14T00:36:36.669Z,99.90
2017-10-14T00:39:05.195Z,99.90
2017-10-14T00:41:32.712Z,99.90
2017-10-14T00:44:00.240Z,99.90
2017-10-14T00:46:27.876Z,99.90
2017-10-14T00:48:55.389Z,99.90
2017-10-14T00:51:23.009Z,99.90
2017-10-14T00:53:52.143Z,99.90
2017-10-14T00:56:20.726Z,99.90
2017-10-14T00:58:49.028Z,99.90
2017-10-14T01:01:16.993Z,99.90
2017-10-14T01:03:44.545Z,99.90
2017-10-14T01:06:12.202Z,99.90
2017-10-14T01:08:39.808Z,99.90
2017-10-14T01:11:07.357Z,99.90
2017-10-14T01:13:34.882Z,99.90
2017-10-14T01:16:02.679Z,99.90
2017-10-14T01:18:30.262Z,99.90
2017-10-14T01:20:57.773Z,99.90
2017-10-14T01:23:25.351Z,99.90
2017-10-14T01:25:52.691Z,99.90
2017-10-14T01:28:20.199Z,99.90
2017-10-14T01:30:48.064Z,99.90
2017-10-14T01:33:15.587Z,99.90
2017-10-14T01:35:43.148Z,99.90
2017-10-14T01:38:11.050Z,99.90
2017-10-14T01:40:38.559Z,99.90
2017-10-14T01:43:06.075Z,99.90
2017-10-14T01:45:33.655Z,99.90
2017-10-14T01:48:01.192Z,99.90
2017-10-14T01:50:29.174Z,99.90
2017-10-14T01:52:57.124Z,99.90
2017-10-14T01:55:24.633Z,99.90
2017-10-14T01:57:52.162Z,99.90
2017-10-14T02:00:19.793Z,99.90
2017-10-14T02:02:47.437Z,99.90
2017-10-14T02:05:14.955Z,99.90
2017-10-14T02:07:44.868Z,99.90
2017-10-14T02:10:12.755Z,99.90
2017-10-14T02:12:40.291Z,99.90
2017-10-14T02:15:09.341Z,99.90
2017-10-14T02:17:37.650Z,99.90
2017-10-14T02:20:05.150Z,99.90
2017-10-14T02:22:32.708Z,99.90
2017-10-14T02:25:00.235Z,99.90
2017-10-14T02:27:28.615Z,99.90
2017-10-14T02:29:56.411Z,99.90
2017-10-14T02:32:23.924Z,99.90
2017-10-14T02:34:51.428Z,99.90
2017-10-14T02:37:19.820Z,99.90
2017-10-14T02:39:47.117Z,99.90
2017-10-14T02:42:14.623Z,99.90
2017-10-14T02:44:42.503Z,99.90
2017-10-14T02:47:10.017Z,99.90
2017-10-14T02:49:38.293Z,99.90
2017-10-14T02:52:06.627Z,99.90
2017-10-14T02:54:34.169Z,99.90
2017-10-14T02:57:01.703Z,99.90
2017-10-14T02:59:30.256Z,99.90
2017-10-14T03:01:57.756Z,99.90
2017-10-14T03:04:25.415Z,99.90
2017-10-14T03:06:53.003Z,99.90
2017-10-14T03:09:20.605Z,99.90
2017-10-14T03:11:48.368Z,99.90
2017-10-14T03:14:16.175Z,99.90
2017-10-14T03:16:43.728Z,99.90
2017-10-14T03:19:11.240Z,99.90
2017-10-14T03:21:39.053Z,99.90
2017-10-14T03:24:06.623Z,99.90
2017-10-14T03:26:34.132Z,99.90
2017-10-14T03:29:01.702Z,99.90
2017-10-14T03:31:29.259Z,99.90
2017-10-14T03:33:56.800Z,99.90
2017-10-14T03:36:24.731Z,99.90
2017-10-14T03:38:52.275Z,99.90
2017-10-14T03:41:19.807Z,99.90
2017-10-14T03:43:47.451Z,99.90
2017-10-14T03:46:14.955Z,99.90
2017-10-14T03:48:42.460Z,99.90
2017-10-14T03:51:10.015Z,99.90
2017-10-14T03:53:37.524Z,99.90
2017-10-14T03:56:05.800Z,99.90
2017-10-14T03:58:34.372Z,99.90
2017-10-14T04:01:01.884Z,99.90
2017-10-14T04:03:29.403Z,99.90
2017-10-14T04:05:57.725Z,99.90
2017-10-14T04:08:25.321Z,99.90
2017-10-14T04:10:52.827Z,99.90
2017-10-14T04:13:20.676Z,99.90
2017-10-14T04:15:48.179Z,99.90
2017-10-14T04:18:15.682Z,99.90
2017-10-14T04:20:43.591Z,99.90
2017-10-14T04:23:11.097Z,99.90
2017-10-14T04:25:39.494Z,99.90
2017-10-14T04:28:07.079Z,99.90
2017-10-14T04:30:35.355Z,99.90
2017-10-14T04:33:02.904Z,99.90
2017-10-14T04:35:30.865Z,99.90
2017-10-14T04:37:58.367Z,99.90
2017-10-14T04:40:25.884Z,99.90
2017-10-14T04:42:53.504Z,99.90
2017-10-14T04:45:21.007Z,99.90
2017-10-14T04:47:48.514Z,99.90
2017-10-14T04:50:16.420Z,99.90
2017-10-14T04:52:44.735Z,99.90
2017-10-14T04:55:12.048Z,99.90
2017-10-14T04:57:39.879Z,99.90
2017-10-14T05:00:08.219Z,99.90
2017-10-14T05:02:35.751Z,99.90
2017-10-14T05:05:04.071Z,99.90
2017-10-14T05:07:31.611Z,99.90
2017-10-14T05:09:59.188Z,99.90
2017-10-14T05:12:26.742Z,99.90
2017-10-14T05:14:54.245Z,99.90
2017-10-14T05:17:21.743Z,99.90
2017-10-14T05:19:49.312Z,99.90
2017-10-14T05:22:16.835Z,99.90
2017-10-14T05:24:45.839Z,99.90
2017-10-14T05:27:13.764Z,99.90
2017-10-14T05:29:41.303Z,99.90
2017-10-14T05:32:08.807Z,99.90
2017-10-14T05:34:36.612Z,99.90
2017-10-14T05:37:04.120Z,99.90
2017-10-14T05:39:31.636Z,99.90
2017-10-14T05:41:59.175Z,99.90
2017-10-14T05:44:26.679Z,99.90
2017-10-14T05:46:54.280Z,99.90
2017-10-14T05:49:22.603Z,99.90
2017-10-14T05:51:50.138Z,99.90
2017-10-14T05:54:17.651Z,99.90
2017-10-14T05:56:45.260Z,99.90
2017-10-14T05:59:12.816Z,99.90
2017-10-14T06:01:40.326Z,99.90
2017-10-14T06:04:08.143Z,99.90
2017-10-14T06:06:35.685Z,99.90
2017-10-14T06:09:03.791Z,99.90
2017-10-14T06:11:31.375Z,99.90
2017-10-14T06:13:58.906Z,99.90
2017-10-14T06:16:26.415Z,99.90
2017-10-14T06:18:54.230Z,99.90
2017-10-14T06:21:21.768Z,99.90
2017-10-14T06:23:50.040Z,99.90
2017-10-14T06:26:18.715Z,99.90
2017-10-14T06:28:46.995Z,99.90
2017-10-14T06:31:15.991Z,99.90
2017-10-14T06:33:44.171Z,99.90
2017-10-14T06:36:12.479Z,99.90
2017-10-14T06:38:39.991Z,99.90
2017-10-14T06:41:07.593Z,99.90
2017-10-14T06:43:35.123Z,99.90
2017-10-14T06:46:02.643Z,99.90
2017-10-14T06:48:30.750Z,99.90
2017-10-14T06:50:59.037Z,99.90
2017-10-14T06:53:26.656Z,99.90
2017-10-14T06:55:54.598Z,99.90
2017-10-14T06:58:22.124Z,99.90
2017-10-14T07:00:49.627Z,99.90
2017-10-14T07:03:17.192Z,99.90
2017-10-14T07:05:45.171Z,99.90
2017-10-14T07:08:12.707Z,99.90
2017-10-14T07:10:40.277Z,99.90
2017-10-14T07:13:07.796Z,99.90
2017-10-14T07:15:36.084Z,99.90
2017-10-14T07:18:03.632Z,99.90
2017-10-14T07:20:31.268Z,99.90
2017-10-14T07:22:58.807Z,99.90
2017-10-14T07:25:26.974Z,99.90
2017-10-14T07:27:54.475Z,99.90
2017-10-14T07:30:21.979Z,99.90
2017-10-14T07:32:50.970Z,99.90
2017-10-14T07:35:18.546Z,99.90
2017-10-14T07:37:46.048Z,99.90
2017-10-14T07:40:14.323Z,99.90
2017-10-14T07:42:43.367Z,99.90
2017-10-14T07:45:10.871Z,99.90
2017-10-14T07:47:39.156Z,99.90
2017-10-14T07:50:08.843Z,99.90
2017-10-14T07:52:36.355Z,99.90
2017-10-14T07:55:03.851Z,99.90
2017-10-14T07:57:31.895Z,99.90
2017-10-14T07:59:59.416Z,99.90
2017-10-14T08:02:27.018Z,99.90
2017-10-14T08:04:54.556Z,99.90
2017-10-14T08:07:22.339Z,99.90
2017-10-14T08:09:49.839Z,99.90
2017-10-14T08:12:17.639Z,99.90
2017-10-14T08:14:45.140Z,99.90
2017-10-14T08:17:12.694Z,99.90
2017-10-14T08:19:40.506Z,99.90
2017-10-14T08:22:08.071Z,99.90
2017-10-14T08:24:35.626Z,99.90
2017-10-14T08:27:03.638Z,99.90
2017-10-14T08:29:31.209Z,99.90
2017-10-14T08:31:58.744Z,99.90
2017-10-14T08:34:26.331Z,99.90
2017-10-14T08:36:53.944Z,99.90
2017-10-14T08:39:21.518Z,99.90
2017-10-14T08:41:49.384Z,99.90
2017-10-14T08:44:17.086Z,99.90
2017-10-14T08:46:44.652Z,99.90
2017-10-14T08:49:12.447Z,99.90
2017-10-14T08:51:40.504Z,99.90
2017-10-14T08:54:08.036Z,99.90
2017-10-14T08:56:35.595Z,99.90
2017-10-14T08:59:03.104Z,99.90
2017-10-14T09:01:30.607Z,99.90
2017-10-14T09:03:58.455Z,99.90
2017-10-14T09:06:25.965Z,99.90
2017-10-14T09:08:53.704Z,99.90
2017-10-14T09:11:21.691Z,99.90
2017-10-14T09:13:49.191Z,99.90
2017-10-14T09:16:16.696Z,99.90
2017-10-14T09:18:44.483Z,99.90
2017-10-14T09:21:11.987Z,99.90
2017-10-14T09:23:39.519Z,99.90
2017-10-14T09:26:07.468Z,99.90
2017-10-14T09:28:34.987Z,99.90
2017-10-14T09:31:02.499Z,99.90
2017-10-14T09:33:30.065Z,99.90
2017-10-14T09:35:58.346Z,99.90
2017-10-14T09:38:26.028Z,99.90
2017-10-14T09:40:53.551Z,99.90
2017-10-14T09:43:21.063Z,99.90
2017-10-14T09:45:48.571Z,99.90
2017-10-14T09:48:16.900Z,99.90
2017-10-14T09:50:44.415Z,99.90
2017-10-14T09:53:11.959Z,99.90
2017-10-14T09:55:39.519Z,99.90
2017-10-14T09:58:07.456Z,99.90
2017-10-14T10:00:34.980Z,99.90
2017-10-14T10:03:02.803Z,99.80
2017-10-14T10:05:30.797Z,94.00
2017-10-14T10:07:58.338Z,92.10
2017-10-14T10:10:25.899Z,77.30
2017-10-14T10:12:53.399Z,69.40
2017-10-14T10:15:20.902Z,61.60
2017-10-14T10:17:48.835Z,57.50
2017-10-14T10:20:16.335Z,55.70
2017-10-14T10:22:43.839Z,54.90
2017-10-14T10:25:11.414Z,50.30
2017-10-14T10:27:38.927Z,47.50
2017-10-14T10:30:06.439Z,45.50
2017-10-14T10:32:33.983Z,43.70
2017-10-14T10:35:01.519Z,42.20
2017-10-14T10:37:29.109Z,41.10
2017-10-14T10:39:56.672Z,40.70
2017-10-14T10:42:24.175Z,42.20
2017-10-14T10:44:51.679Z,41.90
2017-10-14T10:47:19.691Z,40.10
2017-10-14T10:49:47.186Z,43.40
2017-10-14T10:52:15.556Z,42.00
2017-10-14T10:54:43.476Z,42.00
2017-10-14T10:57:10.988Z,41.10
2017-10-14T10:59:39.300Z,41.80
2017-10-14T11:02:07.086Z,41.80
2017-10-14T11:04:34.579Z,42.00
2017-10-14T11:07:02.072Z,43.30
2017-10-14T11:09:29.859Z,42.90
2017-10-14T11:11:57.362Z,42.00
2017-10-14T11:14:25.858Z,44.10
2017-10-14T11:16:54.175Z,45.20
2017-10-14T11:19:21.722Z,45.40
2017-10-14T11:21:49.239Z,46.60
2017-10-14T11:24:18.682Z,47.20
2017-10-14T11:26:46.227Z,47.20
2017-10-14T11:29:13.762Z,50.00
2017-10-14T11:31:41.367Z,52.50
2017-10-14T11:34:08.868Z,52.70
2017-10-14T11:36:36.379Z,54.10
2017-10-14T11:39:04.427Z,55.40
2017-10-14T11:41:32.108Z,59.40
2017-10-14T11:43:59.663Z,64.80
2017-10-14T11:46:27.223Z,69.00
2017-10-14T11:48:54.736Z,74.60
2017-10-14T11:51:22.270Z,81.30
2017-10-14T11:53:50.855Z,85.60
2017-10-14T11:56:18.400Z,88.20
2017-10-14T11:58:45.911Z,91.60
2017-10-14T12:01:13.743Z,93.10
2017-10-14T12:03:41.251Z,95.00
2017-10-14T12:06:08.756Z,95.60
2017-10-14T12:08:36.307Z,96.50
2017-10-14T12:11:03.887Z,97.50
2017-10-14T12:13:31.416Z,96.50
2017-10-14T12:15:59.251Z,96.70
2017-10-14T12:18:27.651Z,99.00
2017-10-14T12:20:55.297Z,99.00
2017-10-14T12:23:22.880Z,98.40
2017-10-14T12:25:50.381Z,99.30
2017-10-14T12:28:17.972Z,99.90
2017-10-14T12:30:46.561Z,98.60
2017-10-14T12:33:14.060Z,98.50
2017-10-14T12:35:41.768Z,99.20
2017-10-14T12:38:10.082Z,99.20
2017-10-14T12:40:37.575Z,99.10
2017-10-14T12:43:05.141Z,99.00
2017-10-14T12:45:32.700Z,99.60
2017-10-14T12:48:00.214Z,99.80
2017-10-14T12:50:27.835Z,99.40
2017-10-14T12:52:55.412Z,99.90
2017-10-14T12:55:23.739Z,99.90
2017-10-14T12:57:51.255Z,99.90
2017-10-14T13:00:19.099Z,99.90
2017-10-14T13:02:46.604Z,99.50
2017-10-14T13:05:14.208Z,99.90
2017-10-14T13:07:41.763Z,99.90
2017-10-14T13:10:09.271Z,99.90
2017-10-14T13:12:36.804Z,99.90
2017-10-14T13:15:04.632Z,99.90
2017-10-14T13:17:32.135Z,99.90
2017-10-14T13:19:59.711Z,99.90
2017-10-14T13:22:28.571Z,99.80
2017-10-14T13:24:56.072Z,99.40
2017-10-14T13:27:23.588Z,99.50
2017-10-14T13:29:51.390Z,99.90
2017-10-14T13:32:19.032Z,99.60
2017-10-14T13:34:47.360Z,99.20
2017-10-14T13:37:15.163Z,99.20
2017-10-14T13:39:42.715Z,99.90
2017-10-14T13:42:10.220Z,99.40
2017-10-14T13:44:37.799Z,99.50
2017-10-14T13:47:05.449Z,99.10
2017-10-14T13:49:32.955Z,99.10
2017-10-14T13:52:00.523Z,99.00
2017-10-14T13:54:28.791Z,99.90
2017-10-14T13:56:56.295Z,99.90
2017-10-14T13:59:24.082Z,99.60
2017-10-14T14:01:51.627Z,99.90
2017-10-14T14:04:19.236Z,99.90
2017-10-14T14:06:48.727Z,99.70
2017-10-14T14:09:16.248Z,99.90
2017-10-14T14:11:43.812Z,99.90
2017-10-14T14:14:11.562Z,99.90
2017-10-14T14:16:39.099Z,99.90
2017-10-14T14:19:06.646Z,99.90
2017-10-14T14:21:35.408Z,99.90
2017-10-14T14:24:03.012Z,99.90
2017-10-14T14:26:31.290Z,99.90
2017-10-14T14:28:59.603Z,99.90
2017-10-14T14:31:27.107Z,99.90
2017-10-14T14:33:54.651Z,99.90
2017-10-14T14:36:22.214Z,99.90
2017-10-14T14:38:49.721Z,99.90
2017-10-14T14:41:17.274Z,99.90
2017-10-14T14:43:45.199Z,99.90
2017-10-14T14:46:12.771Z,99.90
2017-10-14T14:48:40.268Z,99.90
2017-10-14T14:51:07.972Z,99.90
2017-10-14T14:53:35.470Z,99.90
2017-10-14T14:56:02.971Z,99.90
2017-10-14T14:58:30.702Z,99.90
2017-10-14T15:00:58.243Z,99.90
2017-10-14T15:03:25.785Z,99.90
2017-10-14T15:05:53.339Z,99.90
2017-10-14T15:08:20.849Z,99.90
2017-10-14T15:10:48.496Z,99.90
2017-10-14T15:13:16.846Z,99.90
2017-10-14T15:15:44.416Z,99.90
2017-10-14T15:18:12.065Z,99.90
2017-10-14T15:20:39.625Z,99.90
2017-10-14T15:23:07.137Z,99.90
2017-10-14T15:25:34.647Z,99.90
2017-10-14T15:28:02.371Z,99.90
2017-10-14T15:30:29.872Z,99.90
2017-10-14T15:32:57.398Z,99.90
2017-10-14T15:35:25.068Z,99.90
2017-10-14T15:37:52.576Z,99.90
2017-10-14T15:40:20.083Z,99.90
2017-10-14T15:42:48.715Z,99.90
2017-10-14T15:45:16.235Z,99.90
2017-10-14T15:47:44.005Z,99.90
2017-10-14T15:50:11.640Z,99.90
2017-10-14T15:52:39.151Z,99.90
2017-10-14T15:55:06.765Z,99.90
2017-10-14T15:57:35.507Z,99.90
2017-10-14T16:00:03.023Z,99.90
2017-10-14T16:02:30.519Z,99.90
2017-10-14T16:04:59.644Z,99.90
2017-10-14T16:07:27.153Z,99.90
2017-10-14T16:09:54.647Z,99.90
2017-10-14T16:12:22.594Z,99.90
2017-10-14T16:14:50.917Z,99.90
2017-10-14T16:17:18.424Z,99.90
2017-10-14T16:19:46.235Z,99.90
2017-10-14T16:22:13.761Z,99.90
2017-10-14T16:24:41.271Z,99.90
2017-10-14T16:27:08.951Z,99.90
2017-10-14T16:29:36.532Z,99.90
2017-10-14T16:32:04.104Z,99.90
2017-10-14T16:34:32.961Z,99.90
2017-10-14T16:37:00.522Z,99.90
2017-10-14T16:39:28.095Z,99.90
2017-10-14T16:41:57.161Z,99.90
2017-10-14T16:44:24.712Z,99.90
2017-10-14T16:46:52.215Z,99.90
2017-10-14T16:49:19.917Z,99.90
2017-10-14T16:51:47.428Z,99.90
2017-10-14T16:54:14.935Z,99.90
2017-10-14T16:56:42.643Z,99.90
2017-10-14T16:59:10.318Z,99.90
2017-10-14T17:01:38.595Z,99.90
2017-10-14T17:04:06.435Z,99.90
2017-10-14T17:06:34.006Z,99.90
2017-10-14T17:09:01.635Z,99.90
2017-10-14T17:11:29.192Z,99.90
2017-10-14T17:13:56.702Z,99.90
2017-10-14T17:16:24.266Z,99.90
2017-10-14T17:18:52.102Z,99.90
2017-10-14T17:21:19.716Z,99.90
2017-10-14T17:23:47.297Z,99.90
2017-10-14T17:26:15.326Z,99.90
2017-10-14T17:28:42.835Z,99.90
2017-10-14T17:31:10.355Z,99.90
2017-10-14T17:33:38.235Z,99.90
2017-10-14T17:36:05.740Z,99.90
2017-10-14T17:38:33.539Z,99.90
2017-10-14T17:41:01.116Z,99.90
2017-10-14T17:43:28.625Z,99.90
2017-10-14T17:45:56.128Z,99.90
2017-10-14T17:48:23.820Z,99.90
2017-10-14T17:50:51.375Z,99.90
2017-10-14T17:53:19.151Z,99.90
2017-10-14T17:55:46.703Z,99.90
2017-10-14T17:58:14.212Z,99.90
2017-10-14T18:00:41.795Z,99.90
2017-10-14T18:03:10.211Z,99.90
2017-10-14T18:05:37.720Z,99.90
2017-10-14T18:08:05.448Z,99.90
2017-10-14T18:10:33.012Z,99.90
2017-10-14T18:13:00.516Z,99.90
2017-10-14T18:15:28.788Z,99.90
2017-10-14T18:17:57.499Z,99.90
2017-10-14T18:20:25.031Z,99.90
2017-10-14T18:22:52.633Z,99.90
2017-10-14T18:25:20.552Z,99.90
2017-10-14T18:27:48.063Z,99.90
2017-10-14T18:30:15.785Z,99.90
2017-10-14T18:32:44.110Z,99.90
2017-10-14T18:35:11.620Z,99.90
2017-10-14T18:37:39.131Z,99.90
2017-10-14T18:40:06.715Z,99.90
2017-10-14T18:42:34.227Z,99.90
2017-10-14T18:45:01.893Z,99.90
2017-10-14T18:47:29.450Z,99.90
2017-10-14T18:49:57.071Z,99.90
2017-10-14T18:52:24.679Z,99.90
2017-10-14T18:54:52.243Z,99.90
2017-10-14T18:57:19.747Z,99.90
2017-10-14T18:59:47.243Z,99.90
2017-10-14T19:02:14.830Z,99.90
2017-10-14T19:04:42.376Z,99.90
2017-10-14T19:07:09.936Z,99.90
2017-10-14T19:09:37.630Z,99.90
2017-10-14T19:12:05.247Z,99.90
2017-10-14T19:14:32.756Z,99.90
2017-10-14T19:17:00.372Z,99.90
2017-10-14T19:19:27.919Z,99.90
2017-10-14T19:21:55.806Z,99.90
2017-10-14T19:24:23.343Z,99.90
2017-10-14T19:26:50.862Z,99.90
2017-10-14T19:29:18.371Z,99.90
2017-10-14T19:31:46.088Z,99.90
2017-10-14T19:34:13.600Z,99.90
2017-10-14T19:36:41.284Z,99.90
2017-10-14T19:39:08.844Z,99.90
2017-10-14T19:41:36.356Z,99.90
2017-10-14T19:44:04.626Z,99.90
2017-10-14T19:46:33.182Z,99.90
2017-10-14T19:49:00.697Z,99.90
2017-10-14T19:51:28.203Z,99.90
2017-10-14T19:53:56.005Z,99.90
2017-10-14T19:56:23.615Z,99.90
2017-10-14T19:58:51.115Z,99.90
2017-10-14T20:01:18.784Z,99.90
2017-10-14T20:03:46.284Z,99.90
2017-10-14T20:06:13.796Z,99.90
2017-10-14T20:08:42.423Z,99.90
2017-10-14T20:11:09.929Z,99.90
2017-10-14T20:13:38.208Z,99.90
2017-10-14T20:16:06.682Z,99.90
2017-10-14T20:18:34.196Z,99.90
2017-10-14T20:21:01.720Z,99.90
2017-10-14T20:23:29.274Z,99.90
2017-10-14T20:25:57.574Z,99.90
2017-10-14T20:28:25.246Z,99.90
2017-10-14T20:30:53.162Z,99.90
2017-10-14T20:33:20.672Z,99.90
2017-10-14T20:35:48.183Z,99.90
2017-10-14T20:38:15.768Z,99.90
2017-10-14T20:40:43.310Z,99.90
2017-10-14T20:43:10.887Z,99.90
2017-10-14T20:45:39.006Z,99.90
2017-10-14T20:48:06.544Z,99.90
2017-10-14T20:50:34.070Z,99.90
2017-10-14T20:53:01.628Z,99.90
2017-10-14T20:55:29.708Z,99.90
2017-10-14T20:57:57.982Z,99.90
2017-10-14T21:00:26.308Z,99.90
2017-10-14T21:02:53.883Z,99.90
2017-10-14T21:05:21.396Z,99.90
2017-10-14T21:07:48.965Z,99.90
2017-10-14T21:10:17.212Z,99.90
2017-10-14T21:12:44.744Z,99.90
2017-10-14T21:15:12.327Z,99.90
2017-10-14T21:17:39.847Z,99.90
2017-10-14T21:20:07.574Z,99.90
2017-10-14T21:22:35.135Z,99.90
2017-10-14T21:25:02.648Z,99.90
2017-10-14T21:27:30.168Z,99.90
2017-10-14T21:29:57.800Z,99.90
2017-10-14T21:32:26.103Z,99.90
2017-10-14T21:34:53.607Z,99.90
2017-10-14T21:37:21.450Z,99.90
2017-10-14T21:39:48.964Z,99.90
2017-10-14T21:42:16.624Z,99.90
2017-10-14T21:44:44.427Z,99.90
2017-10-14T21:47:11.947Z,99.90
2017-10-14T21:49:39.486Z,99.90
2017-10-14T21:52:07.480Z,99.90
2017-10-14T21:54:34.991Z,99.90
2017-10-14T21:57:02.508Z,99.90
2017-10-14T21:59:30.103Z,99.90
2017-10-14T22:01:57.682Z,99.90
2017-10-14T22:04:25.443Z,99.90
2017-10-14T22:06:53.019Z,99.90
2017-10-14T22:09:21.300Z,99.90
2017-10-14T22:11:48.865Z,99.90
2017-10-14T22:14:17.394Z,99.90
2017-10-14T22:16:44.907Z,99.90
2017-10-14T22:19:12.543Z,99.90
2017-10-14T22:21:40.052Z,99.90
2017-10-14T22:24:07.591Z,99.90
2017-10-14T22:26:35.959Z,99.90
2017-10-14T22:29:03.483Z,99.90
2017-10-14T22:31:31.264Z,99.90
2017-10-14T22:33:58.924Z,99.90
2017-10-14T22:36:26.436Z,99.90
2017-10-14T22:38:54.033Z,99.90
2017-10-14T22:41:21.591Z,99.90
2017-10-14T22:43:49.326Z,99.90
2017-10-14T22:46:16.849Z,99.90
2017-10-14T22:48:44.391Z,99.90
2017-10-14T22:51:11.899Z,99.90
2017-10-14T22:53:39.404Z,99.90
2017-10-14T22:56:06.983Z,99.90
2017-10-14T22:58:35.295Z,99.90
2017-10-14T23:01:02.809Z,99.90
2017-10-14T23:03:30.411Z,99.90
2017-10-14T23:05:58.057Z,99.90
2017-10-14T23:08:25.567Z,99.90
2017-10-14T23:10:53.180Z,99.90
2017-10-14T23:13:20.692Z,99.90
2017-10-14T23:15:48.203Z,99.90
2017-10-14T23:18:15.782Z,99.90
2017-10-14T23:20:43.291Z,99.90
2017-10-14T23:23:10.805Z,99.90
2017-10-14T23:25:38.555Z,99.90
2017-10-14T23:28:06.074Z,99.90
2017-10-14T23:30:33.595Z,99.90
2017-10-14T23:33:01.151Z,99.90
2017-10-14T23:35:28.814Z,99.90
2017-10-14T23:37:56.323Z,99.90
2017-10-14T23:40:23.883Z,99.90
2017-10-14T23:42:52.189Z,99.90
2017-10-14T23:45:19.723Z,99.90
2017-10-14T23:47:47.314Z,99.90
2017-10-14T23:50:14.823Z,99.90
2017-10-14T23:52:42.367Z,99.90
2017-10-14T23:55:10.307Z,99.90
2017-10-14T23:57:37.847Z,99.90
